Time;durP1;ratioP1;P1;durP2;ratioP2;P2;SDS_P1;SDS_P2;PMS_P1;PMS_P2;Temp;Humidity;BMP_temperature;BMP_pressure;BME280_temperature;BME280_humidity;BME280_pressure;Samples;Min_cycle;Max_cycle;Signal;HPM_P1;HPM_P2
2022/06/10 00:00:00;;;;;;;24.42;4.38;;;16.00;99.90;;;;;;6336211;22;20086;-90
2022/06/10 00:02:26;;;;;;;25.95;4.25;;;16.10;99.90;;;;;;6336125;22;19999;-90
2022/06/10 00:04:51;;;;;;;18.17;4.47;;;16.10;99.90;;;;;;6307576;22;20041;-90
2022/06/10 00:07:17;;;;;;;31.95;4.43;;;16.10;99.90;;;;;;6334568;22;19995;-90
2022/06/10 00:09:43;;;;;;;17.45;4.43;;;16.10;99.90;;;;;;6307149;22;20010;-89
2022/06/10 00:12:09;;;;;;;21.25;4.50;;;16.10;99.90;;;;;;6335181;22;20026;-90
2022/06/10 00:14:35;;;;;;;24.65;3.90;;;16.10;99.90;;;;;;6334833;22;20003;-89
2022/06/10 00:17:01;;;;;;;26.65;4.97;;;16.00;99.90;;;;;;6334840;22;20007;-90
2022/06/10 00:19:27;;;;;;;28.42;4.68;;;16.00;99.90;;;;;;6308059;22;20014;-90
2022/06/10 00:21:52;;;;;;;27.42;4.60;;;16.00;99.90;;;;;;6334759;22;20055;-90
2022/06/10 00:24:18;;;;;;;19.40;4.70;;;16.00;99.90;;;;;;6334985;22;20006;-90
2022/06/10 00:26:44;;;;;;;27.20;4.50;;;16.00;99.90;;;;;;6307179;22;20511;-89
2022/06/10 00:29:09;;;;;;;21.10;4.80;;;15.90;99.90;;;;;;6334944;22;20421;-89
2022/06/10 00:31:35;;;;;;;22.67;4.80;;;15.90;99.90;;;;;;6334733;22;20070;-90
2022/06/10 00:34:01;;;;;;;26.50;5.07;;;15.90;99.90;;;;;;6334576;22;20005;-89
2022/06/10 00:36:27;;;;;;;15.52;3.78;;;15.90;99.90;;;;;;6335405;22;20026;-89
2022/06/10 00:38:53;;;;;;;23.33;5.28;;;15.90;99.90;;;;;;6334839;22;20017;-89
2022/06/10 00:41:19;;;;;;;16.38;4.20;;;15.90;99.90;;;;;;6307047;22;20453;-90
2022/06/10 00:43:46;;;;;;;22.58;4.63;;;16.00;99.90;;;;;;6307073;22;20052;-89
2022/06/10 00:46:23;;;;;;;21.52;4.78;;;16.00;99.90;;;;;;6334637;22;19999;-90
2022/06/10 00:48:58;;;;;;;30.95;5.07;;;16.10;99.90;;;;;;6334542;22;20019;-89
2022/06/10 00:51:23;;;;;;;26.40;4.60;;;16.10;99.90;;;;;;6335247;22;20078;-90
2022/06/10 00:54:12;;;;;;;24.42;5.97;;;16.10;99.90;;;;;;6334731;22;20308;-90
2022/06/10 00:56:42;;;;;;;24.00;5.55;;;16.20;99.90;;;;;;6334587;22;20427;-90
2022/06/10 00:59:22;;;;;;;26.35;5.32;;;16.30;99.90;;;;;;6306935;22;20094;-89
2022/06/10 01:02:00;;;;;;;29.15;5.30;;;16.40;99.90;;;;;;6334922;22;20410;-89
2022/06/10 01:04:27;;;;;;;27.98;5.18;;;16.40;99.90;;;;;;6334791;22;19999;-89
2022/06/10 01:06:53;;;;;;;29.97;5.03;;;16.30;99.90;;;;;;6307039;22;20057;-89
2022/06/10 01:09:20;;;;;;;22.48;5.30;;;16.40;99.90;;;;;;6334490;22;20231;-90
2022/06/10 01:11:59;;;;;;;28.13;5.63;;;16.40;99.90;;;;;;6306911;22;20078;-89
2022/06/10 01:14:31;;;;;;;28.13;4.95;;;16.40;99.90;;;;;;6306784;22;20002;-89
2022/06/10 01:17:27;;;;;;;22.88;5.20;;;16.50;99.90;;;;;;6334030;22;20435;-91
2022/06/10 01:20:11;;;;;;;27.10;4.90;;;16.50;99.90;;;;;;6306817;22;20462;-90
2022/06/10 01:23:07;;;;;;;24.58;5.35;;;16.50;99.90;;;;;;6334598;22;20383;-89
2022/06/10 01:26:07;;;;;;;24.58;5.20;;;16.60;99.90;;;;;;6307484;22;20424;-89
2022/06/10 01:28:50;;;;;;;27.10;5.57;;;16.60;99.90;;;;;;6335269;22;19999;-90
2022/06/10 01:31:31;;;;;;;24.88;5.00;;;16.60;99.90;;;;;;6307074;22;19999;-89
2022/06/10 01:34:07;;;;;;;19.65;4.78;;;16.60;99.90;;;;;;6307049;22;19999;-90
2022/06/10 01:36:51;;;;;;;30.65;5.35;;;16.60;99.90;;;;;;6307448;22;20013;-90
2022/06/10 01:39:40;;;;;;;25.92;5.28;;;16.70;99.90;;;;;;6334347;22;20014;-89
2022/06/10 01:42:28;;;;;;;27.20;5.07;;;16.70;99.90;;;;;;6334440;22;19995;-90
2022/06/10 01:45:15;;;;;;;22.80;4.97;;;16.70;99.90;;;;;;6334370;22;20011;-89
2022/06/10 01:48:10;;;;;;;17.90;4.80;;;16.70;99.90;;;;;;6334709;22;20696;-90
2022/06/10 01:50:55;;;;;;;26.75;5.10;;;16.70;99.90;;;;;;6306605;22;20120;-89
2022/06/10 01:53:48;;;;;;;33.28;5.63;;;16.80;99.90;;;;;;6333998;22;20013;-89
2022/06/10 01:56:22;;;;;;;25.80;5.10;;;16.80;99.90;;;;;;6306285;22;20084;-90
2022/06/10 01:58:54;;;;;;;25.13;5.55;;;16.80;99.90;;;;;;6306176;22;20281;-90
2022/06/10 02:01:28;;;;;;;31.40;5.25;;;16.80;99.90;;;;;;6306028;22;20086;-89
2022/06/10 02:04:02;;;;;;;31.05;5.28;;;16.90;99.90;;;;;;6333948;22;20024;-89
2022/06/10 02:06:51;;;;;;;34.17;5.35;;;16.90;99.90;;;;;;6334001;22;19994;-88
2022/06/10 02:09:22;;;;;;;22.48;5.57;;;16.90;99.90;;;;;;6286087;22;20033;-90
2022/06/10 02:11:54;;;;;;;23.75;5.43;;;16.90;99.90;;;;;;6306084;22;20052;-90
2022/06/10 02:14:31;;;;;;;36.17;6.30;;;16.90;99.90;;;;;;6305862;22;19998;-88
2022/06/10 02:16:57;;;;;;;29.60;6.00;;;16.90;99.90;;;;;;6333959;22;20007;-90
2022/06/10 02:19:27;;;;;;;28.98;5.55;;;16.90;99.90;;;;;;6305857;22;20046;-89
2022/06/10 02:22:06;;;;;;;30.60;5.65;;;16.90;99.90;;;;;;6334491;22;20324;-89
2022/06/10 02:24:43;;;;;;;22.70;4.97;;;16.90;99.90;;;;;;6334305;22;20003;-90
2022/06/10 02:27:18;;;;;;;27.80;5.80;;;16.90;99.90;;;;;;6333858;22;20427;-90
2022/06/10 02:30:11;;;;;;;26.05;5.40;;;16.90;99.90;;;;;;6305901;22;20003;-88
2022/06/10 02:32:38;;;;;;;32.85;6.32;;;16.90;99.90;;;;;;6306742;22;20038;-89
2022/06/10 02:35:07;;;;;;;30.57;6.93;;;16.90;99.90;;;;;;6306852;22;20081;-90
2022/06/10 02:38:09;;;;;;;28.33;5.45;;;16.90;99.90;;;;;;6334628;22;20327;-89
2022/06/10 02:41:11;;;;;;;22.58;5.25;;;16.90;99.90;;;;;;6334898;22;20006;-90
2022/06/10 02:43:54;;;;;;;25.30;5.78;;;16.90;99.90;;;;;;6306884;22;20075;-90
2022/06/10 02:46:47;;;;;;;18.63;5.25;;;16.90;99.90;;;;;;6333996;22;20077;-89
2022/06/10 02:49:16;;;;;;;29.27;5.65;;;16.90;99.90;;;;;;6306372;22;19999;-91
2022/06/10 02:51:43;;;;;;;27.90;5.85;;;17.00;99.90;;;;;;6333679;22;20006;-91
2022/06/10 02:54:15;;;;;;;22.45;5.72;;;17.00;99.90;;;;;;6306267;22;20006;-89
2022/06/10 02:56:41;;;;;;;28.13;6.57;;;17.00;99.90;;;;;;6333787;22;20006;-90
2022/06/10 03:02:18;;;;;;;23.35;5.70;;;16.60;99.90;;;;;;6334306;22;20021;-91
2022/06/10 03:05:01;;;;;;;37.53;7.00;;;17.00;99.90;;;;;;6306721;22;20089;-90
2022/06/10 03:07:51;;;;;;;38.58;6.28;;;17.00;99.90;;;;;;6306737;22;20010;-90
2022/06/10 03:10:28;;;;;;;24.70;5.47;;;17.00;99.90;;;;;;6306648;22;20006;-91
2022/06/10 03:13:14;;;;;;;27.10;6.47;;;16.90;99.90;;;;;;6306238;22;20438;-88
2022/06/10 03:15:56;;;;;;;31.10;5.57;;;17.00;99.90;;;;;;6334016;22;20074;-90
2022/06/10 03:18:53;;;;;;;27.95;6.07;;;16.90;99.90;;;;;;6334051;22;20015;-90
2022/06/10 03:21:33;;;;;;;26.75;6.00;;;16.90;99.90;;;;;;6334256;22;20470;-91
2022/06/10 03:24:18;;;;;;;25.77;6.05;;;16.80;99.90;;;;;;6307943;22;20161;-88
2022/06/10 03:27:03;;;;;;;28.80;6.18;;;16.80;99.90;;;;;;6307516;22;20093;-87
2022/06/10 03:29:34;;;;;;;20.05;5.78;;;16.80;99.90;;;;;;6335193;22;20002;-87
2022/06/10 03:32:28;;;;;;;25.13;5.80;;;16.80;99.90;;;;;;6335371;22;20324;-89
2022/06/10 03:35:01;;;;;;;17.90;5.55;;;16.90;99.90;;;;;;6335636;22;20002;-87
2022/06/10 03:37:27;;;;;;;18.88;5.68;;;16.80;99.90;;;;;;6334969;22;20011;-91
2022/06/10 03:39:55;;;;;;;26.73;6.30;;;16.70;99.90;;;;;;6309025;22;20002;-92
2022/06/10 03:42:24;;;;;;;28.38;6.15;;;16.70;99.90;;;;;;6336473;22;20007;-91
2022/06/10 03:44:53;;;;;;;19.83;5.93;;;16.70;99.90;;;;;;6308666;22;20003;-90
2022/06/10 03:47:37;;;;;;;27.17;6.68;;;16.70;99.90;;;;;;6308762;22;19999;-90
2022/06/10 03:50:14;;;;;;;30.38;6.03;;;16.70;99.90;;;;;;6308683;22;20078;-89
2022/06/10 03:52:41;;;;;;;23.30;5.82;;;16.70;99.90;;;;;;6336775;22;20431;-91
2022/06/10 03:55:09;;;;;;;18.70;5.80;;;16.80;99.90;;;;;;6336699;22;20010;-92
2022/06/10 03:57:36;;;;;;;33.72;5.90;;;16.80;99.90;;;;;;6307944;22;20451;-89
2022/06/10 04:00:05;;;;;;;23.25;6.30;;;16.80;99.90;;;;;;6307951;22;20343;-90
2022/06/10 04:02:31;;;;;;;27.90;6.22;;;16.70;99.90;;;;;;6307936;22;20447;-91
2022/06/10 04:04:57;;;;;;;24.25;6.30;;;16.70;99.90;;;;;;6308297;22;20027;-92
2022/06/10 04:07:25;;;;;;;23.63;5.32;;;16.80;99.90;;;;;;6308435;22;20030;-89
2022/06/10 04:09:50;;;;;;;;;;;16.70;99.90;;;;;;6336077;22;20007;-90
2022/06/10 04:12:16;;;;;;;21.33;6.03;;;16.80;99.90;;;;;;6334970;22;19983;-91
2022/06/10 04:14:43;;;;;;;25.77;5.85;;;16.80;99.90;;;;;;6307407;22;20078;-89
2022/06/10 04:17:10;;;;;;;20.60;6.25;;;16.80;99.90;;;;;;6335666;22;20044;-89
2022/06/10 04:19:37;;;;;;;26.45;5.65;;;16.80;99.90;;;;;;6335502;22;20049;-90
2022/06/10 04:22:04;;;;;;;25.60;5.43;;;16.80;99.90;;;;;;6335834;22;19999;-89
2022/06/10 04:24:30;;;;;;;25.63;5.40;;;16.80;99.90;;;;;;6335192;22;20021;-90
2022/06/10 04:26:56;;;;;;;28.33;5.70;;;16.80;99.90;;;;;;6335100;22;20002;-89
2022/06/10 04:29:22;;;;;;;25.13;5.82;;;16.80;99.90;;;;;;6334887;22;19998;-89
2022/06/10 04:31:48;;;;;;;28.58;6.05;;;16.80;99.90;;;;;;6334773;22;19995;-89
2022/06/10 04:34:15;;;;;;;31.27;6.28;;;16.80;99.90;;;;;;6334446;22;20034;-89
2022/06/10 04:36:42;;;;;;;33.40;6.72;;;16.70;99.90;;;;;;6336217;22;19999;-89
2022/06/10 04:39:07;;;;;;;20.55;5.88;;;16.80;99.90;;;;;;6307222;22;20351;-90
2022/06/10 04:41:34;;;;;;;20.58;6.38;;;16.80;99.90;;;;;;6307869;22;20606;-89
2022/06/10 04:43:59;;;;;;;29.92;6.55;;;16.80;99.90;;;;;;6307468;22;20003;-89
2022/06/10 04:46:29;;;;;;;39.60;7.70;;;16.90;99.90;;;;;;6334628;22;20006;-90
2022/06/10 04:48:54;;;;;;;31.70;6.40;;;16.80;99.90;;;;;;6307471;22;19999;-90
2022/06/10 04:51:20;;;;;;;21.17;6.25;;;16.80;99.90;;;;;;6307458;22;20055;-90
2022/06/10 04:53:46;;;;;;;28.70;5.75;;;16.80;99.90;;;;;;6334765;22;19995;-89
2022/06/10 04:56:13;;;;;;;24.05;6.03;;;16.80;99.90;;;;;;6335996;22;20009;-92
2022/06/10 04:58:39;;;;;;;20.67;6.55;;;16.90;99.90;;;;;;6334830;22;20011;-89
2022/06/10 05:01:05;;;;;;;29.55;6.82;;;16.90;99.90;;;;;;6307365;22;20010;-90
2022/06/10 05:03:31;;;;;;;21.30;5.97;;;16.90;99.90;;;;;;6307702;22;20011;-90
2022/06/10 05:05:57;;;;;;;22.58;6.30;;;17.00;99.90;;;;;;6334763;22;19999;-90
2022/06/10 05:08:23;;;;;;;24.35;5.72;;;17.00;99.90;;;;;;6334836;22;20391;-89
2022/06/10 05:10:48;;;;;;;18.88;5.88;;;17.00;99.90;;;;;;6306969;22;20003;-90
2022/06/10 05:13:20;;;;;;;27.20;6.53;;;17.10;99.90;;;;;;6335687;22;20037;-90
2022/06/10 05:15:46;;;;;;;23.55;6.30;;;17.00;99.90;;;;;;6334679;22;19995;-89
2022/06/10 05:18:15;;;;;;;26.23;5.72;;;17.10;99.90;;;;;;6307854;22;20018;-89
2022/06/10 05:20:42;;;;;;;19.95;5.95;;;17.10;99.90;;;;;;6308072;22;20006;-90
2022/06/10 05:23:10;;;;;;;22.15;6.20;;;17.10;99.90;;;;;;6334644;22;20005;-90
2022/06/10 05:25:36;;;;;;;25.25;5.60;;;17.10;99.90;;;;;;6334531;22;20134;-90
2022/06/10 05:28:04;;;;;;;25.02;5.90;;;17.10;99.90;;;;;;6334734;22;20007;-89
2022/06/10 05:30:31;;;;;;;18.88;5.85;;;17.10;99.90;;;;;;6306985;22;19999;-91
2022/06/10 05:32:58;;;;;;;22.73;6.45;;;17.20;99.90;;;;;;6307010;22;20014;-90
2022/06/10 05:35:24;;;;;;;20.57;5.27;;;17.20;99.90;;;;;;6334445;22;19995;-89
2022/06/10 05:37:51;;;;;;;18.23;5.65;;;17.20;99.90;;;;;;6334255;22;20010;-90
2022/06/10 05:40:18;;;;;;;17.13;5.50;;;17.20;99.90;;;;;;6334757;22;19999;-90
2022/06/10 05:42:44;;;;;;;16.38;5.38;;;17.20;99.90;;;;;;6335179;22;20056;-89
2022/06/10 05:45:14;;;;;;;16.10;4.70;;;17.30;99.90;;;;;;6334230;22;19995;-89
2022/06/10 05:47:41;;;;;;;15.57;4.60;;;17.40;99.90;;;;;;6334385;22;20023;-89
2022/06/10 05:50:12;;;;;;;18.02;4.70;;;17.40;99.90;;;;;;6306802;22;20011;-90
2022/06/10 05:52:39;;;;;;;17.98;4.65;;;17.40;99.90;;;;;;6306579;22;20035;-91
2022/06/10 05:55:07;;;;;;;17.80;4.80;;;17.40;99.90;;;;;;6334201;22;20073;-89
2022/06/10 05:57:34;;;;;;;15.00;4.72;;;17.50;99.90;;;;;;6333139;22;20020;-89
2022/06/10 06:00:00;;;;;;;12.55;4.18;;;17.50;99.90;;;;;;6333311;22;20006;-89
2022/06/10 06:02:26;;;;;;;15.20;4.43;;;17.70;99.90;;;;;;6333011;22;20026;-89
2022/06/10 06:04:52;;;;;;;12.50;4.20;;;17.60;99.90;;;;;;6333181;22;20003;-89
2022/06/10 06:07:24;;;;;;;11.60;3.67;;;17.60;99.90;;;;;;6305847;22;20009;-89
2022/06/10 06:09:50;;;;;;;10.20;4.30;;;17.60;99.90;;;;;;6333570;22;20006;-90
2022/06/10 06:12:16;;;;;;;13.43;4.43;;;17.60;99.90;;;;;;6306971;22;20339;-89
2022/06/10 06:14:41;;;;;;;14.02;4.35;;;17.60;99.90;;;;;;6333426;22;19999;-89
2022/06/10 06:17:07;;;;;;;10.10;3.88;;;17.60;99.90;;;;;;6333427;22;20115;-88
2022/06/10 06:19:34;;;;;;;12.43;4.00;;;17.70;99.90;;;;;;6333008;22;20014;-88
2022/06/10 06:22:00;;;;;;;12.98;3.95;;;17.60;99.90;;;;;;6333205;22;20040;-89
2022/06/10 06:24:26;;;;;;;8.80;3.90;;;17.60;99.90;;;;;;6333061;22;19998;-89
2022/06/10 06:26:52;;;;;;;9.93;3.70;;;17.70;99.90;;;;;;6333583;22;19999;-89
2022/06/10 06:29:21;;;;;;;9.00;3.80;;;17.70;99.90;;;;;;6334572;22;20313;-88
2022/06/10 06:31:46;;;;;;;12.98;3.70;;;17.80;99.90;;;;;;6334304;22;20351;-89
2022/06/10 06:34:12;;;;;;;9.02;3.65;;;17.80;99.90;;;;;;6333138;22;19995;-89
2022/06/10 06:36:45;;;;;;;12.18;3.88;;;17.90;99.90;;;;;;6305191;22;20009;-88
2022/06/10 06:39:12;;;;;;;9.85;3.40;;;17.90;99.90;;;;;;6333347;22;20018;-89
2022/06/10 06:41:38;;;;;;;13.82;3.40;;;18.10;99.90;;;;;;6305900;22;20020;-88
2022/06/10 06:44:05;;;;;;;12.05;3.55;;;18.20;99.90;;;;;;6305442;22;20026;-89
2022/06/10 06:46:33;;;;;;;12.20;3.53;;;18.20;99.90;;;;;;6333188;22;20049;-88
2022/06/10 06:49:00;;;;;;;11.80;3.40;;;18.20;99.90;;;;;;6327715;22;20003;-89
2022/06/10 06:51:27;;;;;;;11.27;3.15;;;18.20;99.90;;;;;;6303022;22;20446;-89
2022/06/10 06:53:53;;;;;;;12.32;4.45;;;18.20;99.90;;;;;;6331568;22;20132;-89
2022/06/10 06:56:18;;;;;;;13.80;3.35;;;18.30;99.90;;;;;;6332895;22;20052;-88
2022/06/10 06:58:44;;;;;;;10.18;3.47;;;18.30;99.90;;;;;;6330995;22;20063;-88
2022/06/10 07:01:10;;;;;;;12.25;3.10;;;18.40;99.90;;;;;;6304860;22;20210;-89
2022/06/10 07:03:35;;;;;;;16.42;3.22;;;18.50;99.90;;;;;;6304981;22;20007;-88
2022/06/10 07:06:02;;;;;;;14.65;3.33;;;18.50;99.90;;;;;;6331950;22;20059;-87
2022/06/10 07:08:31;;;;;;;10.40;2.75;;;18.40;99.90;;;;;;6332506;22;20033;-87
2022/06/10 07:11:02;;;;;;;8.63;2.63;;;18.30;99.90;;;;;;6333052;22;19999;-87
2022/06/10 07:13:28;;;;;;;5.18;2.60;;;18.30;99.90;;;;;;6332830;22;20435;-88
2022/06/10 07:15:55;;;;;;;12.25;3.00;;;18.20;99.90;;;;;;6332843;22;20027;-87
2022/06/10 07:18:21;;;;;;;10.13;2.77;;;18.20;99.90;;;;;;6332633;22;20038;-88
2022/06/10 07:20:48;;;;;;;8.18;2.58;;;18.30;99.90;;;;;;6334169;22;20477;-89
2022/06/10 07:23:14;;;;;;;11.35;3.45;;;18.30;99.90;;;;;;6333147;22;20026;-87
2022/06/10 07:25:40;;;;;;;8.35;3.75;;;18.40;99.90;;;;;;6305724;22;19999;-87
2022/06/10 07:28:07;;;;;;;19.67;3.00;;;18.50;99.90;;;;;;6333012;22;20351;-87
2022/06/10 07:30:34;;;;;;;13.50;3.47;;;18.40;99.90;;;;;;6331533;22;20002;-88
2022/06/10 07:33:00;;;;;;;5.38;3.05;;;18.40;99.90;;;;;;6331511;22;20443;-86
2022/06/10 07:35:26;;;;;;;9.80;2.85;;;18.50;99.90;;;;;;6331810;22;20005;-87
2022/06/10 07:37:52;;;;;;;10.75;2.67;;;18.50;99.90;;;;;;6331552;22;20007;-87
2022/06/10 07:43:10;;;;;;;14.80;2.80;;;18.70;99.90;;;;;;6331396;22;20495;-89
2022/06/10 07:45:37;;;;;;;13.13;2.92;;;18.70;99.90;;;;;;6331780;22;19998;-87
2022/06/10 07:48:03;;;;;;;7.43;2.20;;;18.60;99.90;;;;;;6304093;22;20003;-86
2022/06/10 07:50:29;;;;;;;9.40;2.33;;;18.70;99.90;;;;;;6303908;22;20003;-86
2022/06/10 07:52:56;;;;;;;6.90;2.38;;;18.80;99.90;;;;;;6303884;22;20006;-87
2022/06/10 07:55:23;;;;;;;11.35;2.65;;;18.80;99.90;;;;;;6331610;22;20089;-88
2022/06/10 07:57:49;;;;;;;5.63;2.45;;;18.80;99.90;;;;;;6332263;22;20014;-87
2022/06/10 08:00:15;;;;;;;27.02;3.63;;;18.80;99.90;;;;;;6331716;22;20005;-87
2022/06/10 08:02:41;;;;;;;10.77;2.75;;;18.80;99.90;;;;;;6331261;22;20276;-87
2022/06/10 08:05:11;;;;;;;10.48;2.40;;;18.80;99.90;;;;;;6331828;22;20002;-87
2022/06/10 08:07:37;;;;;;;4.85;2.22;;;19.00;99.90;;;;;;6332065;22;19995;-87
2022/06/10 08:10:05;;;;;;;6.15;2.80;;;19.10;99.90;;;;;;6333256;22;20002;-87
2022/06/10 08:12:31;;;;;;;7.82;2.22;;;19.10;99.90;;;;;;6335208;22;20003;-88
2022/06/10 08:14:59;;;;;;;6.35;2.05;;;19.10;99.90;;;;;;6335855;22;20082;-87
2022/06/10 08:17:24;;;;;;;;;;;19.00;99.90;;;;;;6333840;22;20427;-85
2022/06/10 08:19:50;;;;;;;5.45;1.40;;;19.00;99.90;;;;;;6334534;22;19906;-86
2022/06/10 08:22:35;;;;;;;10.00;1.88;;;19.10;99.90;;;;;;6305846;22;19999;-87
2022/06/10 08:25:05;;;;;;;4.97;2.13;;;19.10;99.90;;;;;;6305619;22;20006;-86
2022/06/10 08:27:32;;;;;;;8.65;2.22;;;19.10;99.90;;;;;;6333812;22;20017;-85
2022/06/10 08:29:58;;;;;;;3.53;1.88;;;19.20;99.90;;;;;;6334457;22;19999;-87
2022/06/10 08:32:24;;;;;;;7.75;2.38;;;19.30;99.90;;;;;;6332678;22;20434;-87
2022/06/10 08:34:51;;;;;;;4.22;1.98;;;19.50;99.90;;;;;;6335117;22;19995;-87
2022/06/10 08:37:17;;;;;;;3.55;1.70;;;19.60;99.90;;;;;;6335275;22;20081;-87
2022/06/10 08:39:43;;;;;;;5.45;1.80;;;19.90;99.90;;;;;;6334728;22;19999;-86
2022/06/10 08:42:26;;;;;;;5.78;1.75;;;19.90;99.90;;;;;;6334740;22;19995;-87
2022/06/10 08:44:55;;;;;;;6.13;1.80;;;19.80;99.90;;;;;;6306926;22;20060;-87
2022/06/10 08:47:35;;;;;;;9.93;1.65;;;19.80;99.90;;;;;;6334931;22;20006;-87
2022/06/10 08:50:06;;;;;;;3.35;1.50;;;20.00;99.90;;;;;;6334537;22;20006;-88
2022/06/10 08:52:50;;;;;;;2.45;1.40;;;20.10;99.90;;;;;;6334834;22;20003;-87
2022/06/10 08:55:52;;;;;;;4.82;1.73;;;20.00;99.90;;;;;;6334585;22;19995;-87
2022/06/10 08:58:39;;;;;;;4.05;1.70;;;20.00;99.90;;;;;;6255616;22;20496;-88
2022/06/10 09:01:12;;;;;;;3.70;1.55;;;20.00;99.90;;;;;;6306958;22;20081;-87
2022/06/10 09:04:18;;;;;;;2.40;1.33;;;20.00;99.90;;;;;;6306217;22;20007;-87
2022/06/10 09:06:52;;;;;;;6.88;1.33;;;20.00;99.90;;;;;;6274873;22;20003;-86
2022/06/10 09:09:21;;;;;;;3.95;1.10;;;19.90;99.90;;;;;;6307558;22;20335;-87
2022/06/10 09:12:18;;;;;;;3.17;1.30;;;20.00;99.90;;;;;;6334533;22;20074;-89
2022/06/10 09:14:44;;;;;;;1.60;1.10;;;20.30;99.90;;;;;;6327256;22;20007;-87
2022/06/10 09:17:24;;;;;;;1.65;0.70;;;20.50;99.90;;;;;;6333129;22;20400;-87
2022/06/10 09:20:28;;;;;;;1.25;0.80;;;20.50;99.90;;;;;;6334747;22;20022;-87
2022/06/10 09:23:20;;;;;;;2.05;0.90;;;20.50;99.90;;;;;;6178255;23;20008;-87
2022/06/10 09:25:47;;;;;;;1.10;0.90;;;20.30;99.90;;;;;;6168438;23;20008;-87
2022/06/10 09:28:14;;;;;;;0.93;0.85;;;20.10;99.90;;;;;;6280442;22;20007;-88
2022/06/10 09:30:57;;;;;;;1.08;0.80;;;20.00;99.90;;;;;;6306530;22;20042;-88
2022/06/10 09:33:49;;;;;;;3.42;0.98;;;20.10;99.90;;;;;;6334847;22;20059;-88
2022/06/10 09:36:29;;;;;;;4.38;1.00;;;20.10;99.90;;;;;;6306478;22;20738;-88
2022/06/10 09:39:02;;;;;;;10.13;1.15;;;20.20;99.90;;;;;;6334358;22;20015;-87
2022/06/10 09:42:03;;;;;;;2.60;1.20;;;20.30;99.90;;;;;;6306407;22;20003;-89
2022/06/10 09:45:00;;;;;;;2.47;0.80;;;20.30;99.90;;;;;;6286083;22;20064;-88
2022/06/10 09:47:53;;;;;;;2.03;1.00;;;20.40;99.90;;;;;;6333425;22;20009;-87
2022/06/10 09:50:34;;;;;;;2.22;1.23;;;20.60;99.90;;;;;;6334099;22;19999;-88
2022/06/10 09:53:03;;;;;;;1.42;1.05;;;20.60;99.90;;;;;;6305850;22;20365;-88
2022/06/10 09:56:02;;;;;;;1.88;1.30;;;20.70;99.90;;;;;;6333971;22;20003;-88
2022/06/10 09:58:49;;;;;;;2.60;1.17;;;20.70;99.90;;;;;;6333792;22;20450;-87
2022/06/10 10:01:24;;;;;;;4.35;1.17;;;20.70;99.90;;;;;;6333959;22;20175;-88
2022/06/10 10:04:23;;;;;;;0.93;0.93;;;20.60;99.90;;;;;;6333538;22;20056;-91
2022/06/10 10:07:10;;;;;;;1.27;1.13;;;20.50;99.90;;;;;;6334055;22;19999;-89
2022/06/10 10:09:39;;;;;;;2.92;1.00;;;20.40;99.90;;;;;;6306553;22;20092;-89
2022/06/10 10:12:05;;;;;;;2.53;1.23;;;20.50;99.90;;;;;;6334221;22;20373;-90
2022/06/10 10:15:32;;;;;;;1.30;1.00;;;20.70;99.90;;;;;;6306408;22;20011;-90
2022/06/10 10:18:29;;;;;;;2.00;1.13;;;20.90;99.90;;;;;;6181474;22;20151;-87
2022/06/10 10:21:05;;;;;;;4.38;1.30;;;21.10;99.90;;;;;;6295945;22;20003;-89
2022/06/10 10:23:53;;;;;;;1.65;0.93;;;21.10;99.90;;;;;;6305790;22;20068;-88
2022/06/10 10:26:27;;;;;;;3.55;1.45;;;21.00;99.90;;;;;;6334047;22;20515;-88
2022/06/10 10:29:11;;;;;;;2.53;1.20;;;21.00;99.90;;;;;;6334512;22;20066;-87
2022/06/10 10:31:58;;;;;;;1.85;1.25;;;21.00;99.90;;;;;;6332338;22;20002;-86
2022/06/10 10:34:36;;;;;;;3.67;1.60;;;20.80;99.90;;;;;;6306862;22;20052;-89
2022/06/10 10:37:03;;;;;;;;;;;20.80;99.90;;;;;;6334391;22;20252;-88
2022/06/10 10:39:33;;;;;;;2.15;1.33;;;20.70;99.90;;;;;;6333669;22;20318;-87
2022/06/10 10:42:04;;;;;;;5.60;1.52;;;20.70;99.90;;;;;;6311413;22;19998;-87
2022/06/10 10:44:35;;;;;;;4.15;1.65;;;20.80;99.90;;;;;;6306374;22;20390;-87
2022/06/10 10:47:10;;;;;;;3.63;1.42;;;21.00;99.90;;;;;;6305255;22;20003;-88
2022/06/10 10:49:59;;;;;;;4.00;1.40;;;21.30;99.90;;;;;;6305869;22;20010;-88
2022/06/10 10:52:33;;;;;;;1.95;1.40;;;21.40;99.90;;;;;;6334281;22;20001;-87
2022/06/10 10:55:14;;;;;;;3.95;1.40;;;21.50;99.90;;;;;;6333367;22;20032;-87
2022/06/10 10:57:56;;;;;;;5.72;1.40;;;21.70;99.90;;;;;;6333197;22;20009;-87
2022/06/10 11:00:33;;;;;;;2.42;1.35;;;21.60;99.90;;;;;;6333444;22;20011;-87
2022/06/10 11:03:03;;;;;;;2.97;1.50;;;21.80;99.90;;;;;;6332841;22;20064;-88
2022/06/10 11:05:37;;;;;;;5.13;1.58;;;22.00;99.90;;;;;;6305116;22;20006;-87
2022/06/10 11:08:19;;;;;;;4.03;1.50;;;22.30;99.90;;;;;;6304529;22;20002;-86
2022/06/10 11:10:56;;;;;;;4.18;1.60;;;22.60;99.90;;;;;;6332334;22;20435;-89
2022/06/10 11:13:45;;;;;;;4.25;1.60;;;22.50;99.90;;;;;;6304476;22;20438;-88
2022/06/10 11:16:17;;;;;;;2.15;1.33;;;22.40;99.90;;;;;;6307529;22;20002;-92
2022/06/10 11:18:46;;;;;;;2.45;1.60;;;22.10;99.90;;;;;;6304221;22;20466;-88
2022/06/10 11:21:12;;;;;;;2.38;1.60;;;22.10;99.90;;;;;;6332134;22;19991;-87
2022/06/10 11:23:52;;;;;;;2.50;1.35;;;21.90;99.90;;;;;;6332539;22;20449;-87
2022/06/10 11:26:21;;;;;;;2.63;1.48;;;21.70;99.90;;;;;;6332435;22;20002;-88
2022/06/10 11:28:57;;;;;;;5.82;1.90;;;21.60;99.90;;;;;;6333248;22;20022;-87
2022/06/10 11:31:31;;;;;;;4.00;1.52;;;21.40;99.90;;;;;;6332797;22;20021;-88
2022/06/10 11:33:59;;;;;;;3.72;1.50;;;21.40;99.90;;;;;;6334173;22;20012;-90
2022/06/10 11:36:32;;;;;;;2.55;1.45;;;21.50;99.90;;;;;;6333819;22;20111;-87
2022/06/10 11:39:34;;;;;;;2.38;1.45;;;21.40;99.90;;;;;;6306398;22;20015;-89
2022/06/10 11:42:21;;;;;;;2.28;1.70;;;21.60;99.90;;;;;;6333830;22;20002;-88
2022/06/10 11:45:01;;;;;;;3.87;1.67;;;21.70;99.90;;;;;;6307443;22;20419;-89
2022/06/10 11:47:37;;;;;;;8.27;1.50;;;21.90;99.90;;;;;;6307321;22;20006;-87
2022/06/10 11:50:11;;;;;;;1.42;1.20;;;22.00;99.90;;;;;;6307119;22;20007;-89
2022/06/10 11:53:09;;;;;;;3.20;1.48;;;22.10;99.90;;;;;;6334724;22;20343;-88
2022/06/10 11:55:39;;;;;;;2.85;1.60;;;22.20;99.90;;;;;;6324310;22;19999;-88
2022/06/10 12:01:09;;;;;;;3.17;1.70;;;22.10;99.90;;;;;;6333975;22;20018;-88
2022/06/10 12:03:48;;;;;;;7.38;1.63;;;21.90;99.90;;;;;;6307070;22;20030;-88
2022/06/10 12:06:20;;;;;;;3.90;1.50;;;21.60;99.90;;;;;;6334917;22;20003;-89
2022/06/10 12:09:10;;;;;;;2.83;1.52;;;21.50;99.90;;;;;;6334327;22;20005;-92
2022/06/10 12:12:01;;;;;;;2.78;1.60;;;21.30;99.90;;;;;;6334568;22;19995;-89
2022/06/10 12:14:36;;;;;;;3.53;1.42;;;21.20;99.90;;;;;;6334237;22;20048;-89
2022/06/10 12:17:01;;;;;;;6.00;1.48;;;21.10;99.90;;;;;;6333825;22;20025;-89
2022/06/10 12:20:01;;;;;;;5.90;1.60;;;21.10;99.90;;;;;;6335060;22;20415;-89
2022/06/10 12:22:29;;;;;;;2.25;1.80;;;21.20;99.90;;;;;;6281461;22;20006;-89
2022/06/10 12:24:57;;;;;;;6.72;1.40;;;21.40;99.90;;;;;;6334101;22;20443;-88
2022/06/10 12:27:22;;;;;;;4.65;1.58;;;21.50;99.90;;;;;;6306949;22;20007;-89
2022/06/10 12:30:05;;;;;;;1.95;1.50;;;21.80;99.90;;;;;;6334651;22;20034;-89
2022/06/10 12:33:14;;;;;;;2.50;1.60;;;22.00;99.90;;;;;;6334644;22;20043;-89
2022/06/10 12:35:43;;;;;;;5.47;1.60;;;22.20;99.90;;;;;;6179160;23;20342;-90
2022/06/10 12:38:19;;;;;;;5.30;1.92;;;22.10;99.90;;;;;;6314387;22;20003;-90
2022/06/10 12:40:48;;;;;;;6.20;1.70;;;22.10;99.90;;;;;;6333357;22;20084;-89
2022/06/10 12:43:20;;;;;;;5.32;1.90;;;21.80;99.90;;;;;;6334572;22;19995;-88
2022/06/10 12:45:52;;;;;;;2.72;1.67;;;21.70;99.90;;;;;;6333590;22;20427;-89
2022/06/10 12:48:26;;;;;;;5.95;1.60;;;21.50;99.90;;;;;;6334420;22;20347;-87
2022/06/10 12:50:53;;;;;;;7.47;2.00;;;21.40;99.90;;;;;;6334438;22;20683;-88
2022/06/10 12:53:40;;;;;;;3.83;1.75;;;21.20;99.90;;;;;;6333714;22;20492;-88
2022/06/10 12:56:31;;;;;;;3.23;1.47;;;21.20;99.90;;;;;;6306124;22;20439;-89
2022/06/10 12:59:19;;;;;;;3.25;1.50;;;21.20;99.90;;;;;;6333837;22;20031;-89
2022/06/10 13:01:46;;;;;;;3.13;1.70;;;21.30;99.90;;;;;;6305581;22;20012;-88
2022/06/10 13:04:14;;;;;;;7.55;1.50;;;21.40;99.90;;;;;;6334169;22;20313;-89
2022/06/10 13:06:42;;;;;;;;;;;21.80;99.90;;;;;;6307327;22;20006;-89
2022/06/10 13:09:11;;;;;;;7.25;1.40;;;22.00;99.90;;;;;;6334095;22;19898;-89
2022/06/10 13:11:45;;;;;;;2.97;1.60;;;22.20;99.90;;;;;;6306641;22;19999;-89
2022/06/10 13:14:16;;;;;;;2.10;1.40;;;22.40;99.90;;;;;;6306742;22;20006;-90
2022/06/10 13:17:07;;;;;;;2.97;1.65;;;22.40;99.90;;;;;;6305963;22;20077;-89
2022/06/10 13:20:06;;;;;;;2.72;1.70;;;22.30;99.90;;;;;;6305758;22;20018;-88
2022/06/10 13:22:39;;;;;;;8.80;1.60;;;22.20;99.90;;;;;;6335170;22;20021;-88
2022/06/10 13:25:07;;;;;;;5.50;1.70;;;22.10;99.90;;;;;;6306268;22;20007;-89